createdAt,value
2022-07-29T00:00:29.922Z,100.00
2022-07-29T00:05:26.258Z,100.00
2022-07-29T00:10:22.832Z,100.00
2022-07-29T00:15:19.168Z,100.00
2022-07-29T00:20:15.611Z,100.00
2022-07-29T00:25:13.697Z,100.00
2022-07-29T00:30:10.330Z,100.00
2022-07-29T00:35:26.259Z,100.00
2022-07-29T00:40:23.604Z,100.00
2022-07-29T00:45:21.151Z,100.00
2022-07-29T00:50:17.868Z,100.00
2022-07-29T00:55:16.724Z,100.00
2022-07-29T01:00:20.677Z,100.00
2022-07-29T01:05:22.883Z,100.00
2022-07-29T01:10:21.942Z,100.00
2022-07-29T01:15:18.568Z,100.00
2022-07-29T01:20:24.283Z,100.00
2022-07-29T01:25:44.435Z,100.00
2022-07-29T01:30:45.348Z,100.00
2022-07-29T01:35:43.515Z,100.00
2022-07-29T01:40:54.096Z,100.00
2022-07-29T01:46:12.582Z,100.00
2022-07-29T01:51:16.257Z,100.00
2022-07-29T01:56:14.334Z,100.00
2022-07-29T02:01:12.073Z,100.00
2022-07-29T02:06:10.716Z,100.00
2022-07-29T02:11:09.008Z,100.00
2022-07-29T02:16:07.851Z,100.00
2022-07-29T02:21:05.471Z,100.00
2022-07-29T02:26:12.106Z,100.00
2022-07-29T02:31:10.657Z,100.00
2022-07-29T02:36:07.991Z,100.00
2022-07-29T02:41:09.831Z,100.00
2022-07-29T02:46:12.763Z,100.00
2022-07-29T02:51:43.949Z,100.00
2022-07-29T02:56:42.079Z,100.00
2022-07-29T03:01:42.799Z,100.00
2022-07-29T03:06:40.679Z,100.00
2022-07-29T03:11:41.414Z,100.00
2022-07-29T03:16:42.911Z,100.00
2022-07-29T03:21:39.755Z,100.00
2022-07-29T03:26:36.152Z,100.00
2022-07-29T03:31:33.382Z,100.00
2022-07-29T03:36:29.998Z,100.00
2022-07-29T03:41:26.723Z,100.00
2022-07-29T03:46:24.912Z,100.00
2022-07-29T03:51:33.971Z,100.00
2022-07-29T03:56:33.743Z,100.00
2022-07-29T04:01:30.853Z,100.00
2022-07-29T04:06:27.340Z,100.00
2022-07-29T04:11:23.710Z,100.00
2022-07-29T04:16:20.157Z,100.00
2022-07-29T04:21:16.537Z,100.00
2022-07-29T04:26:12.875Z,100.00
2022-07-29T04:31:10.166Z,100.00
2022-07-29T04:36:06.594Z,100.00
2022-07-29T04:41:22.986Z,100.00
2022-07-29T04:46:19.922Z,100.00
2022-07-29T04:51:16.834Z,100.00
2022-07-29T04:56:13.380Z,100.00
2022-07-29T05:01:09.879Z,100.00
2022-07-29T05:06:06.266Z,100.00
2022-07-29T05:11:11.799Z,100.00
2022-07-29T05:16:10.078Z,100.00
2022-07-29T05:21:06.471Z,100.00
2022-07-29T05:26:02.861Z,100.00
2022-07-29T05:30:59.218Z,100.00
2022-07-29T05:36:00.168Z,100.00
2022-07-29T05:41:00.474Z,100.00
2022-07-29T05:45:57.584Z,100.00
2022-07-29T05:50:54.193Z,100.00
2022-07-29T05:55:50.989Z,100.00
2022-07-29T06:00:47.503Z,100.00
2022-07-29T06:05:43.823Z,100.00
2022-07-29T06:10:40.198Z,100.00
2022-07-29T06:15:36.684Z,100.00
2022-07-29T06:20:33.167Z,100.00
2022-07-29T06:25:30.494Z,100.00
2022-07-29T06:30:27.592Z,100.00
2022-07-29T06:35:38.296Z,100.00
2022-07-29T06:41:01.127Z,100.00
2022-07-29T06:45:57.590Z,100.00
2022-07-29T06:50:54.001Z,100.00
2022-07-29T06:55:51.758Z,100.00
2022-07-29T07:00:48.830Z,100.00
2022-07-29T07:05:46.718Z,100.00
2022-07-29T07:10:43.292Z,100.00
2022-07-29T07:15:40.353Z,100.00
2022-07-29T07:20:37.302Z,100.00
2022-07-29T07:25:33.714Z,100.00
2022-07-29T07:30:30.133Z,100.00
2022-07-29T07:35:28.610Z,100.00
2022-07-29T07:40:25.378Z,100.00
2022-07-29T07:45:21.800Z,100.00
2022-07-29T07:50:20.946Z,100.00
2022-07-29T07:55:17.829Z,100.00
2022-07-29T08:00:16.256Z,100.00
2022-07-29T08:05:17.606Z,99.01
2022-07-29T08:10:16.007Z,90.65
2022-07-29T08:15:14.122Z,93.19
2022-07-29T08:20:10.924Z,82.27
2022-07-29T08:25:07.680Z,78.55
2022-07-29T08:30:05.745Z,71.34
2022-07-29T08:35:02.285Z,72.95
2022-07-29T08:39:58.642Z,70.59
2022-07-29T08:44:55.787Z,64.15
2022-07-29T08:49:53.233Z,60.41
2022-07-29T08:54:50.486Z,60.08
2022-07-29T08:59:48.190Z,55.55
2022-07-29T09:04:44.676Z,56.43
2022-07-29T09:09:41.140Z,58.28
2022-07-29T09:14:37.910Z,53.51
2022-07-29T09:19:35.972Z,53.52
2022-07-29T09:24:43.950Z,50.23
2022-07-29T09:29:40.410Z,54.84
2022-07-29T09:34:37.598Z,56.52
2022-07-29T09:39:37.353Z,56.46
2022-07-29T09:44:50.854Z,61.23
2022-07-29T09:49:53.153Z,57.07
2022-07-29T09:54:49.724Z,58.10
2022-07-29T09:59:57.755Z,63.32
2022-07-29T10:04:54.291Z,61.55
2022-07-29T10:09:58.316Z,56.32
2022-07-29T10:14:55.603Z,54.00
2022-07-29T10:19:52.147Z,54.45
2022-07-29T10:24:49.412Z,57.75
2022-07-29T10:29:45.789Z,57.48
2022-07-29T10:35:10.862Z,53.80
2022-07-29T10:40:45.657Z,54.11
2022-07-29T10:45:42.178Z,53.75
2022-07-29T10:50:59.699Z,54.63
2022-07-29T10:55:56.226Z,53.45
2022-07-29T11:00:56.401Z,49.79
2022-07-29T11:05:59.613Z,50.81
2022-07-29T11:11:32.985Z,47.52
2022-07-29T11:16:59.071Z,50.61
2022-07-29T11:21:58.529Z,49.20
2022-07-29T11:27:16.738Z,49.58
2022-07-29T11:32:23.234Z,46.79
2022-07-29T11:37:28.020Z,47.93
2022-07-29T11:42:32.238Z,45.82
2022-07-29T11:47:30.875Z,48.14
2022-07-29T11:52:49.664Z,45.36
2022-07-29T11:58:04.444Z,46.83
2022-07-29T12:03:04.105Z,45.75
2022-07-29T12:08:22.624Z,49.77
2022-07-29T12:13:21.548Z,47.13
2022-07-29T12:18:24.304Z,47.40
2022-07-29T12:23:20.866Z,46.76
2022-07-29T12:28:26.523Z,49.76
2022-07-29T12:33:27.303Z,48.06
2022-07-29T12:38:24.052Z,49.48
2022-07-29T12:43:24.482Z,53.17
2022-07-29T12:48:41.006Z,50.93
2022-07-29T12:53:38.897Z,53.48
2022-07-29T12:58:40.694Z,49.80
2022-07-29T13:03:57.361Z,50.01
2022-07-29T13:09:06.806Z,50.27
2022-07-29T13:14:06.672Z,51.32
2022-07-29T13:19:09.132Z,50.22
2022-07-29T13:24:09.527Z,49.13
2022-07-29T13:29:07.073Z,51.38
2022-07-29T13:34:03.415Z,56.25
2022-07-29T13:39:00.173Z,55.21
2022-07-29T13:43:56.795Z,58.89
2022-07-29T13:48:53.205Z,57.88
2022-07-29T13:53:49.927Z,57.00
2022-07-29T13:58:46.263Z,57.74
2022-07-29T14:03:45.175Z,60.82
2022-07-29T14:08:42.485Z,62.64
2022-07-29T14:13:38.931Z,62.44
2022-07-29T14:18:36.397Z,62.10
2022-07-29T14:23:32.750Z,63.63
2022-07-29T14:28:29.104Z,66.00
2022-07-29T14:33:25.652Z,63.15
2022-07-29T14:38:22.030Z,65.06
2022-07-29T14:43:23.266Z,64.11
2022-07-29T14:48:19.646Z,67.75
2022-07-29T14:53:16.203Z,68.68
2022-07-29T14:58:16.380Z,69.07
2022-07-29T15:03:13.729Z,69.94
2022-07-29T15:08:21.387Z,70.89
2022-07-29T15:13:17.730Z,70.77
2022-07-29T15:18:14.053Z,71.71
2022-07-29T15:23:10.493Z,74.99
2022-07-29T15:28:09.642Z,73.82
2022-07-29T15:33:05.959Z,76.64
2022-07-29T15:38:02.419Z,75.80
2022-07-29T15:43:01.665Z,75.31
2022-07-29T15:47:57.981Z,77.98
2022-07-29T15:52:54.281Z,75.48
2022-07-29T15:57:51.018Z,76.10
2022-07-29T16:02:47.330Z,76.85
2022-07-29T16:07:43.747Z,76.67
2022-07-29T16:12:40.121Z,82.26
2022-07-29T16:17:36.941Z,75.74
2022-07-29T16:22:33.527Z,75.76
2022-07-29T16:27:35.364Z,82.97
2022-07-29T16:32:34.577Z,93.22
2022-07-29T16:37:35.287Z,100.00
2022-07-29T16:42:45.925Z,100.00
2022-07-29T16:47:43.626Z,100.00
2022-07-29T16:52:40.269Z,100.00
2022-07-29T16:57:36.704Z,100.00
2022-07-29T17:02:33.141Z,100.00
2022-07-29T17:07:29.446Z,100.00
2022-07-29T17:12:25.859Z,100.00
2022-07-29T17:17:38.668Z,100.00
2022-07-29T17:22:36.287Z,100.00
2022-07-29T17:27:33.342Z,100.00
2022-07-29T17:32:29.719Z,100.00
2022-07-29T17:37:26.031Z,100.00
2022-07-29T17:42:22.342Z,100.00
2022-07-29T17:47:18.784Z,100.00
2022-07-29T17:52:15.907Z,100.00
2022-07-29T17:57:12.229Z,100.00
2022-07-29T18:02:08.620Z,100.00
2022-07-29T18:07:05.210Z,100.00
2022-07-29T18:12:01.527Z,100.00
2022-07-29T18:16:58.039Z,100.00
2022-07-29T18:21:56.551Z,100.00
2022-07-29T18:26:54.664Z,100.00
2022-07-29T18:31:51.057Z,100.00
2022-07-29T18:36:47.378Z,100.00
2022-07-29T18:41:49.875Z,100.00
2022-07-29T18:46:55.501Z,100.00
2022-07-29T18:51:52.261Z,100.00
2022-07-29T18:56:49.269Z,100.00
2022-07-29T19:01:46.707Z,100.00
2022-07-29T19:06:43.220Z,100.00
2022-07-29T19:11:40.226Z,100.00
2022-07-29T19:16:36.929Z,100.00
2022-07-29T19:21:33.322Z,100.00
2022-07-29T19:26:29.654Z,100.00
2022-07-29T19:31:26.152Z,100.00
2022-07-29T19:36:22.823Z,100.00
2022-07-29T19:41:19.670Z,100.00
2022-07-29T19:46:16.089Z,100.00
2022-07-29T19:51:12.534Z,100.00
2022-07-29T19:56:09.121Z,100.00
2022-07-29T20:01:10.124Z,100.00
2022-07-29T20:06:07.618Z,100.00
2022-07-29T20:11:04.409Z,100.00
2022-07-29T20:16:01.979Z,100.00
2022-07-29T20:21:00.205Z,100.00
2022-07-29T20:25:56.556Z,100.00
2022-07-29T20:30:53.018Z,100.00
2022-07-29T20:35:49.527Z,100.00
2022-07-29T20:40:45.882Z,100.00
2022-07-29T20:45:42.326Z,100.00
2022-07-29T20:50:38.656Z,100.00
2022-07-29T20:55:34.985Z,100.00
2022-07-29T21:00:31.401Z,100.00
2022-07-29T21:05:27.970Z,100.00
2022-07-29T21:10:24.376Z,100.00
2022-07-29T21:15:21.846Z,100.00
2022-07-29T21:20:19.485Z,100.00
2022-07-29T21:25:15.886Z,100.00
2022-07-29T21:30:12.320Z,100.00
2022-07-29T21:35:18.202Z,100.00
2022-07-29T21:40:25.271Z,100.00
2022-07-29T21:45:21.649Z,100.00
2022-07-29T21:50:18.262Z,100.00
2022-07-29T21:55:14.614Z,100.00
2022-07-29T22:00:15.772Z,100.00
2022-07-29T22:05:12.630Z,100.00
2022-07-29T22:10:09.455Z,100.00
2022-07-29T22:15:07.822Z,100.00
2022-07-29T22:20:05.451Z,100.00
2022-07-29T22:25:02.590Z,100.00
2022-07-29T22:29:59.027Z,100.00
2022-07-29T22:34:55.369Z,100.00
2022-07-29T22:39:51.833Z,100.00
2022-07-29T22:44:48.261Z,100.00
2022-07-29T22:49:44.574Z,100.00
2022-07-29T22:54:40.887Z,100.00
2022-07-29T22:59:37.581Z,100.00
2022-07-29T23:04:33.922Z,100.00
2022-07-29T23:09:30.259Z,100.00
2022-07-29T23:14:26.643Z,100.00
2022-07-29T23:19:23.090Z,100.00
2022-07-29T23:24:19.440Z,100.00
2022-07-29T23:29:15.877Z,100.00
2022-07-29T23:34:12.267Z,100.00
2022-07-29T23:39:11.255Z,100.00
2022-07-29T23:44:08.509Z,100.00
2022-07-29T23:49:04.943Z,100.00
2022-07-29T23:54:02.087Z,100.00
2022-07-29T23:58:58.498Z,100.00
